Terminal Aerodrome Forecast
Issued by NWS

Home | Current Version | Previous Version | Graphics & Text | Print | Product List | Glossary On
Versions: 1 2 3 4 5 6 7 8 9 10 11 12 13 14 15 16 17 18 19
000
FTUS43 KOAX 172200 AAA
TAFCDR
TAF AMD
KCDR 172223Z 1722/1818 16013G23KT P6SM SKC
     FM180100 17013KT P6SM SKC
     FM180500 18016G32KT P6SM SCT150
     FM181500 20012G22KT P6SM SCT050=

USA.gov is the U.S. government's official web portal to all federal, state and local government web resources and services.